sensor_id;sensor_type;location;lat;lon;timestamp;P1;durP1;ratioP1;P2;durP2;ratioP2
7985;SDS011;4038;42.612;23.066;2023-04-16T00:00:57;24.83;;;22.83;;
7985;SDS011;4038;42.612;23.066;2023-04-16T00:03:23;24.73;;;22.73;;
7985;SDS011;4038;42.612;23.066;2023-04-16T00:05:48;24.40;;;22.47;;
7985;SDS011;4038;42.612;23.066;2023-04-16T00:08:14;25.07;;;23.13;;
7985;SDS011;4038;42.612;23.066;2023-04-16T00:10:39;25.42;;;23.63;;
7985;SDS011;4038;42.612;23.066;2023-04-16T00:13:05;26.07;;;24.03;;
7985;SDS011;4038;42.612;23.066;2023-04-16T00:15:30;24.07;;;22.10;;
7985;SDS011;4038;42.612;23.066;2023-04-16T00:17:55;26.93;;;24.53;;
7985;SDS011;4038;42.612;23.066;2023-04-16T00:20:20;26.67;;;24.37;;
7985;SDS011;4038;42.612;23.066;2023-04-16T00:22:46;25.27;;;23.23;;
7985;SDS011;4038;42.612;23.066;2023-04-16T00:25:12;23.97;;;21.80;;
7985;SDS011;4038;42.612;23.066;2023-04-16T00:27:37;22.53;;;20.87;;
7985;SDS011;4038;42.612;23.066;2023-04-16T00:30:02;23.27;;;21.57;;
7985;SDS011;4038;42.612;23.066;2023-04-16T00:32:28;22.23;;;20.73;;
7985;SDS011;4038;42.612;23.066;2023-04-16T00:34:54;22.60;;;20.90;;
7985;SDS011;4038;42.612;23.066;2023-04-16T00:37:19;22.10;;;20.40;;
7985;SDS011;4038;42.612;23.066;2023-04-16T00:39:44;24.90;;;22.73;;
7985;SDS011;4038;42.612;23.066;2023-04-16T00:42:10;27.77;;;25.07;;
7985;SDS011;4038;42.612;23.066;2023-04-16T00:44:35;28.53;;;25.63;;
7985;SDS011;4038;42.612;23.066;2023-04-16T00:47:00;24.95;;;23.00;;
7985;SDS011;4038;42.612;23.066;2023-04-16T00:49:26;24.40;;;22.60;;
7985;SDS011;4038;42.612;23.066;2023-04-16T00:51:51;24.33;;;22.33;;
7985;SDS011;4038;42.612;23.066;2023-04-16T00:54:16;24.43;;;22.63;;
7985;SDS011;4038;42.612;23.066;2023-04-16T00:56:42;24.10;;;22.10;;
7985;SDS011;4038;42.612;23.066;2023-04-16T00:59:08;25.17;;;23.20;;
7985;SDS011;4038;42.612;23.066;2023-04-16T01:01:33;27.77;;;25.17;;
7985;SDS011;4038;42.612;23.066;2023-04-16T01:03:59;28.17;;;25.67;;
7985;SDS011;4038;42.612;23.066;2023-04-16T01:06:24;42.47;;;33.33;;
7985;SDS011;4038;42.612;23.066;2023-04-16T01:08:50;31.30;;;28.27;;
7985;SDS011;4038;42.612;23.066;2023-04-16T01:11:16;28.67;;;26.07;;
7985;SDS011;4038;42.612;23.066;2023-04-16T01:13:41;26.57;;;24.23;;
7985;SDS011;4038;42.612;23.066;2023-04-16T01:16:07;30.73;;;27.77;;
7985;SDS011;4038;42.612;23.066;2023-04-16T01:18:33;26.63;;;24.43;;
7985;SDS011;4038;42.612;23.066;2023-04-16T01:20:58;31.70;;;28.23;;
7985;SDS011;4038;42.612;23.066;2023-04-16T01:23:24;27.93;;;25.30;;
7985;SDS011;4038;42.612;23.066;2023-04-16T01:25:49;27.53;;;24.63;;
7985;SDS011;4038;42.612;23.066;2023-04-16T01:28:15;23.53;;;21.67;;
7985;SDS011;4038;42.612;23.066;2023-04-16T01:30:40;27.07;;;24.67;;
7985;SDS011;4038;42.612;23.066;2023-04-16T01:33:05;25.73;;;23.47;;
7985;SDS011;4038;42.612;23.066;2023-04-16T01:35:32;26.37;;;24.13;;
7985;SDS011;4038;42.612;23.066;2023-04-16T01:37:57;25.00;;;22.80;;
7985;SDS011;4038;42.612;23.066;2023-04-16T01:40:22;25.40;;;23.13;;
7985;SDS011;4038;42.612;23.066;2023-04-16T01:42:47;25.80;;;23.60;;
7985;SDS011;4038;42.612;23.066;2023-04-16T01:45:13;26.90;;;24.57;;
7985;SDS011;4038;42.612;23.066;2023-04-16T01:47:38;24.43;;;22.53;;
7985;SDS011;4038;42.612;23.066;2023-04-16T01:50:04;24.60;;;22.60;;
7985;SDS011;4038;42.612;23.066;2023-04-16T01:52:29;25.13;;;23.33;;
7985;SDS011;4038;42.612;23.066;2023-04-16T01:54:55;25.57;;;23.57;;
7985;SDS011;4038;42.612;23.066;2023-04-16T01:57:20;25.93;;;23.83;;
7985;SDS011;4038;42.612;23.066;2023-04-16T01:59:45;25.17;;;23.17;;
7985;SDS011;4038;42.612;23.066;2023-04-16T02:02:11;26.97;;;24.77;;
7985;SDS011;4038;42.612;23.066;2023-04-16T02:04:37;27.57;;;24.97;;
7985;SDS011;4038;42.612;23.066;2023-04-16T02:07:03;29.17;;;26.53;;
7985;SDS011;4038;42.612;23.066;2023-04-16T02:09:29;27.77;;;25.37;;
7985;SDS011;4038;42.612;23.066;2023-04-16T02:11:54;28.20;;;25.73;;
7985;SDS011;4038;42.612;23.066;2023-04-16T02:14:19;28.33;;;25.43;;
7985;SDS011;4038;42.612;23.066;2023-04-16T02:16:45;27.37;;;24.77;;
7985;SDS011;4038;42.612;23.066;2023-04-16T02:19:11;26.27;;;24.13;;
7985;SDS011;4038;42.612;23.066;2023-04-16T02:21:36;27.13;;;24.70;;
7985;SDS011;4038;42.612;23.066;2023-04-16T02:24:01;27.97;;;25.57;;
7985;SDS011;4038;42.612;23.066;2023-04-16T02:26:27;29.30;;;26.73;;
7985;SDS011;4038;42.612;23.066;2023-04-16T02:28:53;30.13;;;27.50;;
7985;SDS011;4038;42.612;23.066;2023-04-16T02:31:18;30.83;;;27.80;;
7985;SDS011;4038;42.612;23.066;2023-04-16T02:33:43;32.63;;;27.37;;
7985;SDS011;4038;42.612;23.066;2023-04-16T02:36:09;30.83;;;26.23;;
7985;SDS011;4038;42.612;23.066;2023-04-16T02:38:35;31.43;;;28.23;;
7985;SDS011;4038;42.612;23.066;2023-04-16T02:41:01;30.33;;;27.13;;
7985;SDS011;4038;42.612;23.066;2023-04-16T02:43:26;29.43;;;26.63;;
7985;SDS011;4038;42.612;23.066;2023-04-16T02:45:52;28.60;;;25.77;;
7985;SDS011;4038;42.612;23.066;2023-04-16T02:48:17;28.63;;;26.00;;
7985;SDS011;4038;42.612;23.066;2023-04-16T02:50:42;32.80;;;26.83;;
7985;SDS011;4038;42.612;23.066;2023-04-16T02:53:07;29.73;;;26.93;;
7985;SDS011;4038;42.612;23.066;2023-04-16T02:55:34;28.77;;;26.10;;
7985;SDS011;4038;42.612;23.066;2023-04-16T02:57:59;28.40;;;25.67;;
7985;SDS011;4038;42.612;23.066;2023-04-16T03:00:25;28.90;;;26.20;;
7985;SDS011;4038;42.612;23.066;2023-04-16T03:02:50;29.03;;;26.30;;
7985;SDS011;4038;42.612;23.066;2023-04-16T03:05:15;27.63;;;25.17;;
7985;SDS011;4038;42.612;23.066;2023-04-16T03:07:41;26.53;;;23.93;;
7985;SDS011;4038;42.612;23.066;2023-04-16T03:10:06;28.80;;;24.70;;
7985;SDS011;4038;42.612;23.066;2023-04-16T03:12:32;25.27;;;23.07;;
7985;SDS011;4038;42.612;23.066;2023-04-16T03:14:57;26.00;;;23.53;;
7985;SDS011;4038;42.612;23.066;2023-04-16T03:17:22;24.77;;;22.37;;
7985;SDS011;4038;42.612;23.066;2023-04-16T03:19:47;25.87;;;23.60;;
7985;SDS011;4038;42.612;23.066;2023-04-16T03:22:14;26.70;;;24.30;;
7985;SDS011;4038;42.612;23.066;2023-04-16T03:24:40;27.27;;;24.80;;
7985;SDS011;4038;42.612;23.066;2023-04-16T03:27:05;28.23;;;25.27;;
7985;SDS011;4038;42.612;23.066;2023-04-16T03:29:30;36.37;;;26.57;;
7985;SDS011;4038;42.612;23.066;2023-04-16T03:31:56;39.83;;;25.87;;
7985;SDS011;4038;42.612;23.066;2023-04-16T03:34:21;41.77;;;27.30;;
7985;SDS011;4038;42.612;23.066;2023-04-16T03:36:46;28.50;;;25.00;;
7985;SDS011;4038;42.612;23.066;2023-04-16T03:39:12;31.53;;;26.03;;
7985;SDS011;4038;42.612;23.066;2023-04-16T03:41:37;27.90;;;25.00;;
7985;SDS011;4038;42.612;23.066;2023-04-16T03:44:02;28.77;;;24.93;;
7985;SDS011;4038;42.612;23.066;2023-04-16T03:46:27;29.17;;;26.17;;
7985;SDS011;4038;42.612;23.066;2023-04-16T03:48:53;31.40;;;25.87;;
7985;SDS011;4038;42.612;23.066;2023-04-16T03:51:18;28.63;;;26.13;;
7985;SDS011;4038;42.612;23.066;2023-04-16T03:53:43;27.67;;;25.07;;
7985;SDS011;4038;42.612;23.066;2023-04-16T03:56:08;27.83;;;25.10;;
7985;SDS011;4038;42.612;23.066;2023-04-16T03:58:34;28.60;;;26.30;;
7985;SDS011;4038;42.612;23.066;2023-04-16T04:00:59;28.73;;;26.00;;
7985;SDS011;4038;42.612;23.066;2023-04-16T04:03:24;28.93;;;25.43;;
7985;SDS011;4038;42.612;23.066;2023-04-16T04:05:50;27.13;;;24.27;;
7985;SDS011;4038;42.612;23.066;2023-04-16T04:08:15;26.67;;;24.57;;
7985;SDS011;4038;42.612;23.066;2023-04-16T04:10:40;26.60;;;24.13;;
7985;SDS011;4038;42.612;23.066;2023-04-16T04:13:05;27.03;;;24.73;;
7985;SDS011;4038;42.612;23.066;2023-04-16T04:15:31;27.77;;;24.03;;
7985;SDS011;4038;42.612;23.066;2023-04-16T04:17:56;26.03;;;23.77;;
7985;SDS011;4038;42.612;23.066;2023-04-16T04:20:22;25.77;;;23.27;;
7985;SDS011;4038;42.612;23.066;2023-04-16T04:22:48;28.93;;;25.30;;
7985;SDS011;4038;42.612;23.066;2023-04-16T04:25:13;34.07;;;29.63;;
7985;SDS011;4038;42.612;23.066;2023-04-16T04:27:39;37.10;;;27.63;;
7985;SDS011;4038;42.612;23.066;2023-04-16T04:30:04;30.43;;;26.30;;
7985;SDS011;4038;42.612;23.066;2023-04-16T04:32:30;26.83;;;24.43;;
7985;SDS011;4038;42.612;23.066;2023-04-16T04:34:55;26.47;;;24.17;;
7985;SDS011;4038;42.612;23.066;2023-04-16T04:37:20;29.03;;;25.67;;
7985;SDS011;4038;42.612;23.066;2023-04-16T04:39:46;24.07;;;22.20;;
7985;SDS011;4038;42.612;23.066;2023-04-16T04:42:11;24.70;;;22.80;;
7985;SDS011;4038;42.612;23.066;2023-04-16T04:44:36;26.50;;;23.97;;
7985;SDS011;4038;42.612;23.066;2023-04-16T04:47:01;26.90;;;24.17;;
7985;SDS011;4038;42.612;23.066;2023-04-16T04:49:27;26.33;;;24.20;;
7985;SDS011;4038;42.612;23.066;2023-04-16T04:51:52;24.90;;;22.87;;
7985;SDS011;4038;42.612;23.066;2023-04-16T04:54:17;23.13;;;21.43;;
7985;SDS011;4038;42.612;23.066;2023-04-16T04:56:42;25.20;;;23.23;;
7985;SDS011;4038;42.612;23.066;2023-04-16T04:59:11;24.80;;;22.83;;
7985;SDS011;4038;42.612;23.066;2023-04-16T05:01:37;24.90;;;23.03;;
7985;SDS011;4038;42.612;23.066;2023-04-16T05:04:02;23.77;;;21.93;;
7985;SDS011;4038;42.612;23.066;2023-04-16T05:06:27;24.73;;;22.83;;
7985;SDS011;4038;42.612;23.066;2023-04-16T05:08:52;25.20;;;23.20;;
7985;SDS011;4038;42.612;23.066;2023-04-16T05:11:18;28.90;;;26.20;;
7985;SDS011;4038;42.612;23.066;2023-04-16T05:13:43;25.93;;;23.60;;
7985;SDS011;4038;42.612;23.066;2023-04-16T05:16:08;26.00;;;23.60;;
7985;SDS011;4038;42.612;23.066;2023-04-16T05:18:33;26.03;;;23.90;;
7985;SDS011;4038;42.612;23.066;2023-04-16T05:20:59;25.23;;;23.20;;
7985;SDS011;4038;42.612;23.066;2023-04-16T05:23:24;26.00;;;23.83;;
7985;SDS011;4038;42.612;23.066;2023-04-16T05:25:49;25.03;;;22.73;;
7985;SDS011;4038;42.612;23.066;2023-04-16T05:28:15;28.27;;;22.83;;
7985;SDS011;4038;42.612;23.066;2023-04-16T05:30:40;25.23;;;23.10;;
7985;SDS011;4038;42.612;23.066;2023-04-16T05:33:05;32.20;;;25.90;;
7985;SDS011;4038;42.612;23.066;2023-04-16T05:35:30;32.47;;;24.48;;
7985;SDS011;4038;42.612;23.066;2023-04-16T05:37:56;29.13;;;23.50;;
7985;SDS011;4038;42.612;23.066;2023-04-16T05:40:21;40.60;;;24.48;;
7985;SDS011;4038;42.612;23.066;2023-04-16T05:42:46;36.97;;;24.27;;
7985;SDS011;4038;42.612;23.066;2023-04-16T05:45:11;45.60;;;25.50;;
7985;SDS011;4038;42.612;23.066;2023-04-16T05:47:37;30.93;;;23.70;;
7985;SDS011;4038;42.612;23.066;2023-04-16T05:50:02;41.35;;;23.85;;
7985;SDS011;4038;42.612;23.066;2023-04-16T05:52:27;42.33;;;25.53;;
7985;SDS011;4038;42.612;23.066;2023-04-16T05:54:52;49.63;;;26.90;;
7985;SDS011;4038;42.612;23.066;2023-04-16T05:57:18;60.55;;;28.20;;
7985;SDS011;4038;42.612;23.066;2023-04-16T05:59:43;44.88;;;25.50;;
7985;SDS011;4038;42.612;23.066;2023-04-16T06:02:08;41.53;;;25.30;;
7985;SDS011;4038;42.612;23.066;2023-04-16T06:04:33;41.78;;;26.85;;
7985;SDS011;4038;42.612;23.066;2023-04-16T06:06:59;55.33;;;26.33;;
7985;SDS011;4038;42.612;23.066;2023-04-16T06:09:25;47.75;;;27.13;;
7985;SDS011;4038;42.612;23.066;2023-04-16T06:11:50;51.70;;;27.60;;
7985;SDS011;4038;42.612;23.066;2023-04-16T06:14:15;49.10;;;27.15;;
7985;SDS011;4038;42.612;23.066;2023-04-16T06:16:41;35.60;;;27.08;;
7985;SDS011;4038;42.612;23.066;2023-04-16T06:19:06;44.10;;;27.70;;
7985;SDS011;4038;42.612;23.066;2023-04-16T06:21:31;53.30;;;29.40;;
7985;SDS011;4038;42.612;23.066;2023-04-16T06:23:57;55.70;;;28.20;;
7985;SDS011;4038;42.612;23.066;2023-04-16T06:26:22;45.83;;;26.75;;
7985;SDS011;4038;42.612;23.066;2023-04-16T06:28:48;49.63;;;25.98;;
7985;SDS011;4038;42.612;23.066;2023-04-16T06:31:14;45.35;;;26.90;;
7985;SDS011;4038;42.612;23.066;2023-04-16T06:33:39;42.72;;;26.73;;
7985;SDS011;4038;42.612;23.066;2023-04-16T06:36:05;50.80;;;27.50;;
7985;SDS011;4038;42.612;23.066;2023-04-16T06:38:30;55.58;;;28.00;;
7985;SDS011;4038;42.612;23.066;2023-04-16T06:40:55;45.58;;;26.13;;
7985;SDS011;4038;42.612;23.066;2023-04-16T06:43:21;44.85;;;25.65;;
7985;SDS011;4038;42.612;23.066;2023-04-16T06:45:46;38.75;;;26.73;;
7985;SDS011;4038;42.612;23.066;2023-04-16T06:48:11;36.80;;;24.35;;
7985;SDS011;4038;42.612;23.066;2023-04-16T06:50:36;33.70;;;25.27;;
7985;SDS011;4038;42.612;23.066;2023-04-16T06:53:02;39.30;;;24.95;;
7985;SDS011;4038;42.612;23.066;2023-04-16T06:55:27;35.67;;;25.08;;
7985;SDS011;4038;42.612;23.066;2023-04-16T06:57:52;41.28;;;25.63;;
7985;SDS011;4038;42.612;23.066;2023-04-16T07:00:18;31.50;;;24.30;;
7985;SDS011;4038;42.612;23.066;2023-04-16T07:02:43;33.55;;;23.98;;
7985;SDS011;4038;42.612;23.066;2023-04-16T07:05:08;36.40;;;24.88;;
7985;SDS011;4038;42.612;23.066;2023-04-16T07:07:33;38.15;;;25.17;;
7985;SDS011;4038;42.612;23.066;2023-04-16T07:10:00;27.05;;;24.35;;
7985;SDS011;4038;42.612;23.066;2023-04-16T07:12:25;33.30;;;25.02;;
7985;SDS011;4038;42.612;23.066;2023-04-16T07:14:51;32.45;;;26.33;;
7985;SDS011;4038;42.612;23.066;2023-04-16T07:17:16;41.47;;;28.67;;
7985;SDS011;4038;42.612;23.066;2023-04-16T07:19:41;48.92;;;30.35;;
7985;SDS011;4038;42.612;23.066;2023-04-16T07:22:06;37.97;;;29.55;;
7985;SDS011;4038;42.612;23.066;2023-04-16T07:24:32;39.00;;;28.95;;
7985;SDS011;4038;42.612;23.066;2023-04-16T07:26:57;39.05;;;27.33;;
7985;SDS011;4038;42.612;23.066;2023-04-16T07:29:22;38.97;;;27.70;;
7985;SDS011;4038;42.612;23.066;2023-04-16T07:31:48;35.08;;;26.52;;
7985;SDS011;4038;42.612;23.066;2023-04-16T07:34:13;28.52;;;25.85;;
7985;SDS011;4038;42.612;23.066;2023-04-16T07:36:38;28.50;;;25.00;;
7985;SDS011;4038;42.612;23.066;2023-04-16T07:39:04;28.27;;;24.55;;
7985;SDS011;4038;42.612;23.066;2023-04-16T07:41:30;30.27;;;26.92;;
7985;SDS011;4038;42.612;23.066;2023-04-16T07:43:55;27.95;;;25.02;;
7985;SDS011;4038;42.612;23.066;2023-04-16T07:46:20;25.10;;;23.00;;
7985;SDS011;4038;42.612;23.066;2023-04-16T07:48:46;57.72;;;47.10;;
7985;SDS011;4038;42.612;23.066;2023-04-16T07:51:11;24.25;;;22.17;;
7985;SDS011;4038;42.612;23.066;2023-04-16T07:53:36;23.35;;;21.13;;
7985;SDS011;4038;42.612;23.066;2023-04-16T07:56:01;25.80;;;23.20;;
7985;SDS011;4038;42.612;23.066;2023-04-16T07:58:27;25.52;;;23.00;;
7985;SDS011;4038;42.612;23.066;2023-04-16T08:00:52;24.20;;;22.15;;
7985;SDS011;4038;42.612;23.066;2023-04-16T08:03:17;26.45;;;24.35;;
7985;SDS011;4038;42.612;23.066;2023-04-16T08:05:43;27.83;;;25.33;;
7985;SDS011;4038;42.612;23.066;2023-04-16T08:08:08;24.40;;;22.30;;
7985;SDS011;4038;42.612;23.066;2023-04-16T08:10:33;23.42;;;21.45;;
7985;SDS011;4038;42.612;23.066;2023-04-16T08:12:59;23.08;;;21.10;;
7985;SDS011;4038;42.612;23.066;2023-04-16T08:15:24;21.83;;;20.23;;
7985;SDS011;4038;42.612;23.066;2023-04-16T08:17:50;22.17;;;20.58;;
7985;SDS011;4038;42.612;23.066;2023-04-16T08:20:15;24.20;;;22.25;;
7985;SDS011;4038;42.612;23.066;2023-04-16T08:22:41;22.50;;;20.75;;
7985;SDS011;4038;42.612;23.066;2023-04-16T08:25:06;22.83;;;21.15;;
7985;SDS011;4038;42.612;23.066;2023-04-16T08:27:31;37.42;;;33.92;;
7985;SDS011;4038;42.612;23.066;2023-04-16T08:29:57;25.05;;;22.67;;
7985;SDS011;4038;42.612;23.066;2023-04-16T08:32:22;32.05;;;28.90;;
7985;SDS011;4038;42.612;23.066;2023-04-16T08:34:47;22.40;;;20.80;;
7985;SDS011;4038;42.612;23.066;2023-04-16T08:37:12;30.60;;;27.70;;
7985;SDS011;4038;42.612;23.066;2023-04-16T08:39:38;22.55;;;20.85;;
7985;SDS011;4038;42.612;23.066;2023-04-16T08:42:03;22.63;;;20.98;;
7985;SDS011;4038;42.612;23.066;2023-04-16T08:44:36;25.48;;;23.20;;
7985;SDS011;4038;42.612;23.066;2023-04-16T08:47:01;27.27;;;24.50;;
7985;SDS011;4038;42.612;23.066;2023-04-16T08:49:27;23.15;;;21.45;;
7985;SDS011;4038;42.612;23.066;2023-04-16T08:51:53;22.42;;;20.70;;
7985;SDS011;4038;42.612;23.066;2023-04-16T08:56:56;21.08;;;19.40;;
7985;SDS011;4038;42.612;23.066;2023-04-16T08:59:22;21.77;;;20.08;;
7985;SDS011;4038;42.612;23.066;2023-04-16T09:01:48;21.92;;;20.13;;
7985;SDS011;4038;42.612;23.066;2023-04-16T09:04:13;21.50;;;19.90;;
7985;SDS011;4038;42.612;23.066;2023-04-16T09:06:39;21.38;;;19.88;;
7985;SDS011;4038;42.612;23.066;2023-04-16T09:09:05;21.30;;;19.63;;
7985;SDS011;4038;42.612;23.066;2023-04-16T09:11:32;21.38;;;19.73;;
7985;SDS011;4038;42.612;23.066;2023-04-16T09:13:58;20.88;;;19.48;;
7985;SDS011;4038;42.612;23.066;2023-04-16T09:16:24;21.98;;;20.20;;
7985;SDS011;4038;42.612;23.066;2023-04-16T09:18:51;21.80;;;19.65;;
7985;SDS011;4038;42.612;23.066;2023-04-16T09:21:16;21.58;;;19.88;;
7985;SDS011;4038;42.612;23.066;2023-04-16T09:23:42;21.25;;;19.65;;
7985;SDS011;4038;42.612;23.066;2023-04-16T09:26:07;21.77;;;20.17;;
7985;SDS011;4038;42.612;23.066;2023-04-16T09:28:42;21.00;;;19.40;;
7985;SDS011;4038;42.612;23.066;2023-04-16T09:31:08;20.95;;;19.30;;
7985;SDS011;4038;42.612;23.066;2023-04-16T09:33:34;21.02;;;19.60;;
7985;SDS011;4038;42.612;23.066;2023-04-16T09:35:59;21.90;;;20.02;;
7985;SDS011;4038;42.612;23.066;2023-04-16T09:38:25;22.25;;;20.35;;
7985;SDS011;4038;42.612;23.066;2023-04-16T09:41:06;21.35;;;19.65;;
7985;SDS011;4038;42.612;23.066;2023-04-16T09:43:32;21.48;;;19.88;;
7985;SDS011;4038;42.612;23.066;2023-04-16T09:45:57;21.02;;;19.33;;
7985;SDS011;4038;42.612;23.066;2023-04-16T09:48:29;21.83;;;19.95;;
7985;SDS011;4038;42.612;23.066;2023-04-16T09:50:55;21.25;;;19.75;;
7985;SDS011;4038;42.612;23.066;2023-04-16T09:53:38;21.23;;;19.63;;
7985;SDS011;4038;42.612;23.066;2023-04-16T09:56:04;22.25;;;20.33;;
7985;SDS011;4038;42.612;23.066;2023-04-16T09:58:30;21.45;;;19.83;;
7985;SDS011;4038;42.612;23.066;2023-04-16T10:01:01;21.40;;;19.80;;
7985;SDS011;4038;42.612;23.066;2023-04-16T10:03:28;21.40;;;19.63;;
7985;SDS011;4038;42.612;23.066;2023-04-16T10:05:53;21.02;;;19.42;;
7985;SDS011;4038;42.612;23.066;2023-04-16T10:08:19;21.38;;;19.60;;
7985;SDS011;4038;42.612;23.066;2023-04-16T10:10:44;21.98;;;20.02;;
7985;SDS011;4038;42.612;23.066;2023-04-16T10:13:09;22.10;;;20.27;;
7985;SDS011;4038;42.612;23.066;2023-04-16T10:15:36;20.65;;;19.13;;
7985;SDS011;4038;42.612;23.066;2023-04-16T10:18:02;20.75;;;19.15;;
7985;SDS011;4038;42.612;23.066;2023-04-16T10:20:27;21.05;;;19.45;;
7985;SDS011;4038;42.612;23.066;2023-04-16T10:22:53;21.38;;;19.63;;
7985;SDS011;4038;42.612;23.066;2023-04-16T10:25:18;21.00;;;19.40;;
7985;SDS011;4038;42.612;23.066;2023-04-16T10:27:44;21.08;;;19.33;;
7985;SDS011;4038;42.612;23.066;2023-04-16T10:30:09;20.60;;;19.10;;
7985;SDS011;4038;42.612;23.066;2023-04-16T10:32:35;21.10;;;19.40;;
7985;SDS011;4038;42.612;23.066;2023-04-16T10:35:02;20.88;;;19.38;;
7985;SDS011;4038;42.612;23.066;2023-04-16T10:37:30;21.08;;;19.50;;
7985;SDS011;4038;42.612;23.066;2023-04-16T10:39:56;21.58;;;19.88;;
7985;SDS011;4038;42.612;23.066;2023-04-16T10:42:21;21.80;;;20.10;;
7985;SDS011;4038;42.612;23.066;2023-04-16T10:44:47;20.70;;;19.13;;
7985;SDS011;4038;42.612;23.066;2023-04-16T10:47:12;21.05;;;19.50;;
7985;SDS011;4038;42.612;23.066;2023-04-16T10:49:38;20.67;;;18.95;;
7985;SDS011;4038;42.612;23.066;2023-04-16T10:54:35;21.27;;;19.70;;
7985;SDS011;4038;42.612;23.066;2023-04-16T10:57:04;21.13;;;19.52;;
7985;SDS011;4038;42.612;23.066;2023-04-16T10:59:31;21.85;;;19.90;;
7985;SDS011;4038;42.612;23.066;2023-04-16T11:01:57;21.63;;;20.00;;
7985;SDS011;4038;42.612;23.066;2023-04-16T11:12:11;21.05;;;19.45;;
7985;SDS011;4038;42.612;23.066;2023-04-16T11:14:36;21.13;;;19.63;;
7985;SDS011;4038;42.612;23.066;2023-04-16T11:17:04;22.33;;;20.58;;
7985;SDS011;4038;42.612;23.066;2023-04-16T11:19:30;21.67;;;20.10;;
7985;SDS011;4038;42.612;23.066;2023-04-16T11:21:55;22.52;;;20.65;;
7985;SDS011;4038;42.612;23.066;2023-04-16T11:24:20;21.65;;;20.05;;
7985;SDS011;4038;42.612;23.066;2023-04-16T11:26:46;21.05;;;19.35;;
7985;SDS011;4038;42.612;23.066;2023-04-16T11:29:15;21.55;;;20.05;;
7985;SDS011;4038;42.612;23.066;2023-04-16T11:31:40;21.00;;;19.58;;
7985;SDS011;4038;42.612;23.066;2023-04-16T11:34:06;20.75;;;19.25;;
7985;SDS011;4038;42.612;23.066;2023-04-16T11:36:42;20.63;;;19.08;;
7985;SDS011;4038;42.612;23.066;2023-04-16T11:39:07;21.45;;;19.73;;
7985;SDS011;4038;42.612;23.066;2023-04-16T11:41:32;21.48;;;19.92;;
7985;SDS011;4038;42.612;23.066;2023-04-16T11:43:57;21.45;;;19.83;;
7985;SDS011;4038;42.612;23.066;2023-04-16T11:46:23;21.65;;;19.85;;
7985;SDS011;4038;42.612;23.066;2023-04-16T11:49:01;22.80;;;21.10;;
7985;SDS011;4038;42.612;23.066;2023-04-16T11:51:26;21.70;;;20.10;;
7985;SDS011;4038;42.612;23.066;2023-04-16T11:53:52;20.95;;;19.45;;
7985;SDS011;4038;42.612;23.066;2023-04-16T11:56:27;21.60;;;20.00;;
7985;SDS011;4038;42.612;23.066;2023-04-16T11:59:06;21.63;;;19.92;;
7985;SDS011;4038;42.612;23.066;2023-04-16T12:01:32;21.58;;;20.00;;
7985;SDS011;4038;42.612;23.066;2023-04-16T12:04:00;21.58;;;19.88;;
7985;SDS011;4038;42.612;23.066;2023-04-16T12:06:25;22.48;;;20.83;;
7985;SDS011;4038;42.612;23.066;2023-04-16T12:08:51;23.20;;;21.40;;
7985;SDS011;4038;42.612;23.066;2023-04-16T12:11:16;20.90;;;19.30;;
7985;SDS011;4038;42.612;23.066;2023-04-16T12:13:41;20.50;;;19.00;;
7985;SDS011;4038;42.612;23.066;2023-04-16T12:16:17;23.58;;;21.60;;
7985;SDS011;4038;42.612;23.066;2023-04-16T12:18:57;20.67;;;19.15;;
7985;SDS011;4038;42.612;23.066;2023-04-16T12:21:22;21.52;;;20.02;;
7985;SDS011;4038;42.612;23.066;2023-04-16T12:23:52;21.63;;;20.13;;
7985;SDS011;4038;42.612;23.066;2023-04-16T12:26:17;23.50;;;21.60;;
7985;SDS011;4038;42.612;23.066;2023-04-16T12:28:42;22.48;;;20.55;;
7985;SDS011;4038;42.612;23.066;2023-04-16T12:31:07;21.77;;;20.17;;
7985;SDS011;4038;42.612;23.066;2023-04-16T12:33:34;20.95;;;19.33;;
7985;SDS011;4038;42.612;23.066;2023-04-16T12:35:59;20.65;;;19.15;;
7985;SDS011;4038;42.612;23.066;2023-04-16T12:38:27;22.98;;;21.27;;
7985;SDS011;4038;42.612;23.066;2023-04-16T12:40:52;31.60;;;28.90;;
7985;SDS011;4038;42.612;23.066;2023-04-16T12:43:20;21.45;;;19.95;;
7985;SDS011;4038;42.612;23.066;2023-04-16T12:45:46;22.00;;;20.17;;
7985;SDS011;4038;42.612;23.066;2023-04-16T12:48:11;21.63;;;19.92;;
7985;SDS011;4038;42.612;23.066;2023-04-16T12:50:36;21.50;;;19.88;;
7985;SDS011;4038;42.612;23.066;2023-04-16T12:53:03;21.88;;;20.17;;
7985;SDS011;4038;42.612;23.066;2023-04-16T12:55:28;22.70;;;21.08;;
7985;SDS011;4038;42.612;23.066;2023-04-16T12:57:54;21.83;;;20.20;;
7985;SDS011;4038;42.612;23.066;2023-04-16T13:00:19;20.80;;;19.40;;
7985;SDS011;4038;42.612;23.066;2023-04-16T13:02:45;27.45;;;22.63;;
7985;SDS011;4038;42.612;23.066;2023-04-16T13:05:10;20.88;;;19.48;;
7985;SDS011;4038;42.612;23.066;2023-04-16T13:07:37;20.73;;;19.33;;
7985;SDS011;4038;42.612;23.066;2023-04-16T13:10:02;22.67;;;21.17;;
7985;SDS011;4038;42.612;23.066;2023-04-16T13:12:27;27.00;;;25.00;;
7985;SDS011;4038;42.612;23.066;2023-04-16T13:14:53;26.35;;;24.15;;
7985;SDS011;4038;42.612;23.066;2023-04-16T13:17:19;32.13;;;29.10;;
7985;SDS011;4038;42.612;23.066;2023-04-16T13:19:44;33.75;;;30.35;;
7985;SDS011;4038;42.612;23.066;2023-04-16T13:22:09;33.50;;;30.42;;
7985;SDS011;4038;42.612;23.066;2023-04-16T13:24:35;33.35;;;30.65;;
7985;SDS011;4038;42.612;23.066;2023-04-16T13:27:00;31.00;;;28.08;;
7985;SDS011;4038;42.612;23.066;2023-04-16T13:29:25;32.15;;;29.42;;
7985;SDS011;4038;42.612;23.066;2023-04-16T13:31:51;30.55;;;27.95;;
7985;SDS011;4038;42.612;23.066;2023-04-16T13:34:16;29.30;;;26.90;;
7985;SDS011;4038;42.612;23.066;2023-04-16T13:36:41;28.30;;;25.80;;
7985;SDS011;4038;42.612;23.066;2023-04-16T13:39:07;27.20;;;25.00;;
7985;SDS011;4038;42.612;23.066;2023-04-16T13:41:38;25.90;;;23.90;;
7985;SDS011;4038;42.612;23.066;2023-04-16T13:44:03;23.52;;;21.75;;
7985;SDS011;4038;42.612;23.066;2023-04-16T13:46:29;23.05;;;21.35;;
7985;SDS011;4038;42.612;23.066;2023-04-16T13:48:54;22.40;;;20.80;;
7985;SDS011;4038;42.612;23.066;2023-04-16T13:51:20;22.65;;;21.15;;
7985;SDS011;4038;42.612;23.066;2023-04-16T13:53:46;23.17;;;21.48;;
7985;SDS011;4038;42.612;23.066;2023-04-16T13:56:11;23.73;;;21.98;;
7985;SDS011;4038;42.612;23.066;2023-04-16T13:58:36;23.67;;;21.95;;
7985;SDS011;4038;42.612;23.066;2023-04-16T14:01:02;21.98;;;20.35;;
7985;SDS011;4038;42.612;23.066;2023-04-16T14:03:27;21.98;;;20.30;;
7985;SDS011;4038;42.612;23.066;2023-04-16T14:05:52;20.98;;;19.48;;
7985;SDS011;4038;42.612;23.066;2023-04-16T14:08:18;21.13;;;19.50;;
7985;SDS011;4038;42.612;23.066;2023-04-16T14:10:48;21.92;;;20.33;;
7985;SDS011;4038;42.612;23.066;2023-04-16T14:13:14;21.23;;;19.85;;
7985;SDS011;4038;42.612;23.066;2023-04-16T14:15:39;21.13;;;19.83;;
7985;SDS011;4038;42.612;23.066;2023-04-16T14:18:04;21.25;;;19.75;;
7985;SDS011;4038;42.612;23.066;2023-04-16T14:20:30;20.88;;;19.38;;
7985;SDS011;4038;42.612;23.066;2023-04-16T14:22:55;21.25;;;19.70;;
7985;SDS011;4038;42.612;23.066;2023-04-16T14:25:21;20.95;;;19.38;;
7985;SDS011;4038;42.612;23.066;2023-04-16T14:27:46;21.63;;;20.02;;
7985;SDS011;4038;42.612;23.066;2023-04-16T14:30:11;20.95;;;19.55;;
7985;SDS011;4038;42.612;23.066;2023-04-16T14:32:37;21.10;;;19.60;;
7985;SDS011;4038;42.612;23.066;2023-04-16T14:35:02;21.38;;;19.67;;
7985;SDS011;4038;42.612;23.066;2023-04-16T14:37:28;21.92;;;20.10;;